sensor_id;sensor_type;location;lat;lon;timestamp;P1;durP1;ratioP1;P2;durP2;ratioP2
78308;SDS011;67566;42.022;21.356;2023-06-22T00:01:50;16.95;;;14.75;;
78308;SDS011;67566;42.022;21.356;2023-06-22T00:04:16;18.30;;;16.05;;
78308;SDS011;67566;42.022;21.356;2023-06-22T00:06:41;17.48;;;14.63;;
78308;SDS011;67566;42.022;21.356;2023-06-22T00:09:06;16.25;;;14.65;;
78308;SDS011;67566;42.022;21.356;2023-06-22T00:11:33;19.63;;;14.77;;
78308;SDS011;67566;42.022;21.356;2023-06-22T00:13:59;18.45;;;15.63;;
78308;SDS011;67566;42.022;21.356;2023-06-22T00:16:25;19.20;;;16.10;;
78308;SDS011;67566;42.022;21.356;2023-06-22T00:18:50;16.92;;;14.80;;
78308;SDS011;67566;42.022;21.356;2023-06-22T00:21:16;19.98;;;16.63;;
78308;SDS011;67566;42.022;21.356;2023-06-22T00:23:41;18.27;;;16.45;;
78308;SDS011;67566;42.022;21.356;2023-06-22T00:26:13;18.98;;;15.18;;
78308;SDS011;67566;42.022;21.356;2023-06-22T00:28:39;19.60;;;17.23;;
78308;SDS011;67566;42.022;21.356;2023-06-22T00:31:04;21.63;;;16.33;;
78308;SDS011;67566;42.022;21.356;2023-06-22T00:33:30;21.98;;;15.38;;
78308;SDS011;67566;42.022;21.356;2023-06-22T00:35:56;16.17;;;13.98;;
78308;SDS011;67566;42.022;21.356;2023-06-22T00:38:22;17.88;;;15.38;;
78308;SDS011;67566;42.022;21.356;2023-06-22T00:40:48;16.75;;;13.18;;
78308;SDS011;67566;42.022;21.356;2023-06-22T00:43:13;19.00;;;15.00;;
78308;SDS011;67566;42.022;21.356;2023-06-22T00:45:38;16.75;;;15.10;;
78308;SDS011;67566;42.022;21.356;2023-06-22T00:48:05;17.35;;;15.40;;
78308;SDS011;67566;42.022;21.356;2023-06-22T00:50:32;16.95;;;15.20;;
78308;SDS011;67566;42.022;21.356;2023-06-22T00:53:06;17.10;;;14.90;;
78308;SDS011;67566;42.022;21.356;2023-06-22T00:55:34;17.67;;;15.88;;
78308;SDS011;67566;42.022;21.356;2023-06-22T00:58:02;22.95;;;17.50;;
78308;SDS011;67566;42.022;21.356;2023-06-22T01:00:30;16.17;;;14.48;;
78308;SDS011;67566;42.022;21.356;2023-06-22T01:02:57;16.27;;;14.57;;
78308;SDS011;67566;42.022;21.356;2023-06-22T01:05:23;17.00;;;15.25;;
78308;SDS011;67566;42.022;21.356;2023-06-22T01:18:44;17.63;;;14.65;;
78308;SDS011;67566;42.022;21.356;2023-06-22T01:21:14;17.23;;;15.13;;
78308;SDS011;67566;42.022;21.356;2023-06-22T01:28:55;16.42;;;14.63;;
78308;SDS011;67566;42.022;21.356;2023-06-22T01:31:26;16.88;;;14.57;;
78308;SDS011;67566;42.022;21.356;2023-06-22T01:33:55;16.60;;;14.77;;
78308;SDS011;67566;42.022;21.356;2023-06-22T01:36:24;18.30;;;16.38;;
78308;SDS011;67566;42.022;21.356;2023-06-22T01:38:50;16.52;;;14.80;;
78308;SDS011;67566;42.022;21.356;2023-06-22T01:41:19;17.05;;;15.25;;
78308;SDS011;67566;42.022;21.356;2023-06-22T01:43:45;16.92;;;14.73;;
78308;SDS011;67566;42.022;21.356;2023-06-22T01:46:12;17.48;;;15.70;;
78308;SDS011;67566;42.022;21.356;2023-06-22T01:48:38;18.80;;;16.30;;
78308;SDS011;67566;42.022;21.356;2023-06-22T01:51:05;18.60;;;15.93;;
78308;SDS011;67566;42.022;21.356;2023-06-22T01:53:30;19.90;;;17.73;;
78308;SDS011;67566;42.022;21.356;2023-06-22T01:55:56;17.35;;;15.63;;
78308;SDS011;67566;42.022;21.356;2023-06-22T01:58:23;17.35;;;15.65;;
78308;SDS011;67566;42.022;21.356;2023-06-22T02:03:48;17.45;;;15.65;;
78308;SDS011;67566;42.022;21.356;2023-06-22T02:06:21;18.13;;;16.23;;
78308;SDS011;67566;42.022;21.356;2023-06-22T02:08:56;18.05;;;16.15;;
78308;SDS011;67566;42.022;21.356;2023-06-22T02:11:26;18.92;;;16.92;;
78308;SDS011;67566;42.022;21.356;2023-06-22T02:13:54;20.08;;;15.43;;
78308;SDS011;67566;42.022;21.356;2023-06-22T02:16:21;16.92;;;15.13;;
78308;SDS011;67566;42.022;21.356;2023-06-22T02:18:50;17.13;;;14.88;;
78308;SDS011;67566;42.022;21.356;2023-06-22T02:21:19;22.05;;;17.00;;
78308;SDS011;67566;42.022;21.356;2023-06-22T02:26:11;18.83;;;16.30;;
78308;SDS011;67566;42.022;21.356;2023-06-22T02:28:37;18.52;;;16.55;;
78308;SDS011;67566;42.022;21.356;2023-06-22T02:31:03;18.63;;;16.50;;
78308;SDS011;67566;42.022;21.356;2023-06-22T02:33:28;17.35;;;15.55;;
78308;SDS011;67566;42.022;21.356;2023-06-22T02:35:54;19.60;;;16.42;;
78308;SDS011;67566;42.022;21.356;2023-06-22T02:38:19;21.10;;;16.55;;
78308;SDS011;67566;42.022;21.356;2023-06-22T02:40:45;19.10;;;15.73;;
78308;SDS011;67566;42.022;21.356;2023-06-22T02:43:11;18.35;;;15.88;;
78308;SDS011;67566;42.022;21.356;2023-06-22T02:45:37;18.23;;;16.27;;
78308;SDS011;67566;42.022;21.356;2023-06-22T02:48:02;20.70;;;18.20;;
78308;SDS011;67566;42.022;21.356;2023-06-22T02:50:28;23.60;;;18.00;;
78308;SDS011;67566;42.022;21.356;2023-06-22T02:52:54;16.98;;;15.27;;
78308;SDS011;67566;42.022;21.356;2023-06-22T02:55:19;21.10;;;18.15;;
78308;SDS011;67566;42.022;21.356;2023-06-22T02:57:45;19.88;;;17.08;;
78308;SDS011;67566;42.022;21.356;2023-06-22T03:00:11;16.70;;;14.98;;
78308;SDS011;67566;42.022;21.356;2023-06-22T03:02:44;19.85;;;17.20;;
78308;SDS011;67566;42.022;21.356;2023-06-22T03:05:11;17.45;;;15.65;;
78308;SDS011;67566;42.022;21.356;2023-06-22T03:07:39;17.55;;;15.70;;
78308;SDS011;67566;42.022;21.356;2023-06-22T03:10:07;23.77;;;17.33;;
78308;SDS011;67566;42.022;21.356;2023-06-22T03:12:34;19.08;;;16.58;;
78308;SDS011;67566;42.022;21.356;2023-06-22T03:15:00;20.35;;;16.80;;
78308;SDS011;67566;42.022;21.356;2023-06-22T03:17:26;19.55;;;17.35;;
78308;SDS011;67566;42.022;21.356;2023-06-22T03:19:51;20.35;;;17.70;;
78308;SDS011;67566;42.022;21.356;2023-06-22T03:22:16;21.17;;;17.83;;
78308;SDS011;67566;42.022;21.356;2023-06-22T03:24:42;19.42;;;17.13;;
78308;SDS011;67566;42.022;21.356;2023-06-22T03:27:07;21.10;;;18.08;;
78308;SDS011;67566;42.022;21.356;2023-06-22T03:29:33;20.63;;;17.23;;
78308;SDS011;67566;42.022;21.356;2023-06-22T03:31:59;19.88;;;17.83;;
78308;SDS011;67566;42.022;21.356;2023-06-22T03:34:24;21.23;;;17.23;;
78308;SDS011;67566;42.022;21.356;2023-06-22T03:36:50;20.35;;;17.60;;
78308;SDS011;67566;42.022;21.356;2023-06-22T03:39:16;19.00;;;17.00;;
78308;SDS011;67566;42.022;21.356;2023-06-22T03:41:41;19.55;;;17.27;;
78308;SDS011;67566;42.022;21.356;2023-06-22T03:44:06;20.73;;;15.90;;
78308;SDS011;67566;42.022;21.356;2023-06-22T03:46:35;18.70;;;16.33;;
78308;SDS011;67566;42.022;21.356;2023-06-22T03:49:01;19.80;;;16.98;;
78308;SDS011;67566;42.022;21.356;2023-06-22T03:51:28;22.50;;;17.27;;
78308;SDS011;67566;42.022;21.356;2023-06-22T03:53:53;18.77;;;16.42;;
78308;SDS011;67566;42.022;21.356;2023-06-22T03:56:19;22.52;;;18.45;;
78308;SDS011;67566;42.022;21.356;2023-06-22T03:58:46;19.77;;;17.50;;
78308;SDS011;67566;42.022;21.356;2023-06-22T04:01:11;19.55;;;16.27;;
78308;SDS011;67566;42.022;21.356;2023-06-22T04:03:37;17.45;;;15.60;;
78308;SDS011;67566;42.022;21.356;2023-06-22T04:06:03;17.85;;;15.70;;
78308;SDS011;67566;42.022;21.356;2023-06-22T04:08:29;17.45;;;15.48;;
78308;SDS011;67566;42.022;21.356;2023-06-22T04:10:55;19.90;;;17.77;;
78308;SDS011;67566;42.022;21.356;2023-06-22T04:13:21;22.75;;;19.10;;
78308;SDS011;67566;42.022;21.356;2023-06-22T04:15:47;27.00;;;19.90;;
78308;SDS011;67566;42.022;21.356;2023-06-22T04:18:12;29.85;;;20.88;;
78308;SDS011;67566;42.022;21.356;2023-06-22T04:20:38;22.00;;;18.63;;
78308;SDS011;67566;42.022;21.356;2023-06-22T04:23:04;22.77;;;18.80;;
78308;SDS011;67566;42.022;21.356;2023-06-22T04:25:30;19.65;;;16.65;;
78308;SDS011;67566;42.022;21.356;2023-06-22T04:27:55;21.02;;;16.40;;
78308;SDS011;67566;42.022;21.356;2023-06-22T04:30:21;21.08;;;16.77;;
78308;SDS011;67566;42.022;21.356;2023-06-22T04:32:47;18.30;;;15.63;;
78308;SDS011;67566;42.022;21.356;2023-06-22T04:35:21;19.70;;;16.63;;
78308;SDS011;67566;42.022;21.356;2023-06-22T04:37:48;16.67;;;14.98;;
78308;SDS011;67566;42.022;21.356;2023-06-22T04:40:14;17.63;;;15.95;;
78308;SDS011;67566;42.022;21.356;2023-06-22T04:42:41;16.55;;;14.85;;
78308;SDS011;67566;42.022;21.356;2023-06-22T04:45:17;14.75;;;13.25;;
78308;SDS011;67566;42.022;21.356;2023-06-22T04:47:42;15.98;;;14.35;;
78308;SDS011;67566;42.022;21.356;2023-06-22T04:50:10;15.10;;;13.52;;
78308;SDS011;67566;42.022;21.356;2023-06-22T04:52:36;15.63;;;13.68;;
78308;SDS011;67566;42.022;21.356;2023-06-22T04:55:02;15.85;;;14.25;;
78308;SDS011;67566;42.022;21.356;2023-06-22T04:57:28;16.38;;;14.68;;
78308;SDS011;67566;42.022;21.356;2023-06-22T04:59:57;17.38;;;15.63;;
78308;SDS011;67566;42.022;21.356;2023-06-22T05:02:36;17.42;;;15.38;;
78308;SDS011;67566;42.022;21.356;2023-06-22T05:05:02;16.17;;;14.35;;
78308;SDS011;67566;42.022;21.356;2023-06-22T05:07:32;18.77;;;14.07;;
78308;SDS011;67566;42.022;21.356;2023-06-22T05:09:58;16.30;;;14.32;;
78308;SDS011;67566;42.022;21.356;2023-06-22T05:12:24;16.70;;;14.50;;
78308;SDS011;67566;42.022;21.356;2023-06-22T05:14:50;18.25;;;15.02;;
78308;SDS011;67566;42.022;21.356;2023-06-22T05:17:15;15.93;;;14.23;;
78308;SDS011;67566;42.022;21.356;2023-06-22T05:19:44;14.40;;;12.90;;
78308;SDS011;67566;42.022;21.356;2023-06-22T05:22:18;15.77;;;13.80;;
78308;SDS011;67566;42.022;21.356;2023-06-22T05:24:44;14.23;;;12.52;;
78308;SDS011;67566;42.022;21.356;2023-06-22T05:27:10;15.15;;;13.55;;
78308;SDS011;67566;42.022;21.356;2023-06-22T05:29:36;16.58;;;14.32;;
78308;SDS011;67566;42.022;21.356;2023-06-22T05:32:02;19.17;;;14.52;;
78308;SDS011;67566;42.022;21.356;2023-06-22T05:34:28;17.50;;;15.65;;
78308;SDS011;67566;42.022;21.356;2023-06-22T05:36:54;16.48;;;14.77;;
78308;SDS011;67566;42.022;21.356;2023-06-22T05:39:19;16.40;;;14.68;;
78308;SDS011;67566;42.022;21.356;2023-06-22T05:41:45;18.08;;;15.88;;
78308;SDS011;67566;42.022;21.356;2023-06-22T05:44:11;21.13;;;15.95;;
78308;SDS011;67566;42.022;21.356;2023-06-22T05:46:39;19.88;;;15.82;;
78308;SDS011;67566;42.022;21.356;2023-06-22T05:49:09;17.25;;;15.05;;
78308;SDS011;67566;42.022;21.356;2023-06-22T05:51:35;18.05;;;15.20;;
78308;SDS011;67566;42.022;21.356;2023-06-22T05:54:00;16.33;;;14.60;;
78308;SDS011;67566;42.022;21.356;2023-06-22T05:56:26;16.70;;;14.45;;
78308;SDS011;67566;42.022;21.356;2023-06-22T05:58:51;18.08;;;13.13;;
78308;SDS011;67566;42.022;21.356;2023-06-22T06:01:17;15.18;;;13.02;;
78308;SDS011;67566;42.022;21.356;2023-06-22T06:03:42;16.75;;;13.80;;
78308;SDS011;67566;42.022;21.356;2023-06-22T06:06:09;15.75;;;13.73;;
78308;SDS011;67566;42.022;21.356;2023-06-22T06:08:36;14.98;;;13.45;;
78308;SDS011;67566;42.022;21.356;2023-06-22T06:11:02;15.27;;;12.75;;
78308;SDS011;67566;42.022;21.356;2023-06-22T06:13:27;15.20;;;13.02;;
78308;SDS011;67566;42.022;21.356;2023-06-22T06:15:53;15.90;;;13.50;;
78308;SDS011;67566;42.022;21.356;2023-06-22T06:18:22;14.40;;;12.93;;
78308;SDS011;67566;42.022;21.356;2023-06-22T06:20:47;15.25;;;13.00;;
78308;SDS011;67566;42.022;21.356;2023-06-22T06:23:13;13.70;;;12.38;;
78308;SDS011;67566;42.022;21.356;2023-06-22T06:25:38;14.68;;;13.02;;
78308;SDS011;67566;42.022;21.356;2023-06-22T06:28:04;17.30;;;14.18;;
78308;SDS011;67566;42.022;21.356;2023-06-22T06:30:30;15.30;;;13.57;;
78308;SDS011;67566;42.022;21.356;2023-06-22T06:32:57;16.48;;;14.40;;
78308;SDS011;67566;42.022;21.356;2023-06-22T06:35:23;15.38;;;12.68;;
78308;SDS011;67566;42.022;21.356;2023-06-22T06:37:49;15.48;;;13.75;;
78308;SDS011;67566;42.022;21.356;2023-06-22T06:40:16;16.50;;;11.75;;
78308;SDS011;67566;42.022;21.356;2023-06-22T06:42:46;14.90;;;11.77;;
78308;SDS011;67566;42.022;21.356;2023-06-22T06:45:21;18.05;;;13.43;;
78308;SDS011;67566;42.022;21.356;2023-06-22T06:47:50;15.20;;;13.10;;
78308;SDS011;67566;42.022;21.356;2023-06-22T06:50:16;14.85;;;11.82;;
78308;SDS011;67566;42.022;21.356;2023-06-22T06:52:43;14.50;;;13.00;;
78308;SDS011;67566;42.022;21.356;2023-06-22T06:55:09;13.95;;;12.43;;
78308;SDS011;67566;42.022;21.356;2023-06-22T06:57:38;20.42;;;11.77;;
78308;SDS011;67566;42.022;21.356;2023-06-22T07:00:08;14.25;;;12.77;;
78308;SDS011;67566;42.022;21.356;2023-06-22T07:02:40;14.02;;;12.27;;
78308;SDS011;67566;42.022;21.356;2023-06-22T07:05:10;14.70;;;11.68;;
78308;SDS011;67566;42.022;21.356;2023-06-22T07:07:36;16.90;;;13.32;;
78308;SDS011;67566;42.022;21.356;2023-06-22T07:10:02;19.75;;;13.82;;
78308;SDS011;67566;42.022;21.356;2023-06-22T07:12:28;17.20;;;13.73;;
78308;SDS011;67566;42.022;21.356;2023-06-22T07:15:01;15.52;;;13.13;;
78308;SDS011;67566;42.022;21.356;2023-06-22T07:17:30;17.85;;;13.38;;
78308;SDS011;67566;42.022;21.356;2023-06-22T07:19:56;14.80;;;12.48;;
78308;SDS011;67566;42.022;21.356;2023-06-22T07:22:21;15.65;;;13.55;;
78308;SDS011;67566;42.022;21.356;2023-06-22T07:24:47;15.30;;;13.15;;
78308;SDS011;67566;42.022;21.356;2023-06-22T07:27:12;15.55;;;13.40;;
78308;SDS011;67566;42.022;21.356;2023-06-22T07:29:38;15.77;;;13.10;;
78308;SDS011;67566;42.022;21.356;2023-06-22T07:32:05;14.85;;;12.65;;
78308;SDS011;67566;42.022;21.356;2023-06-22T07:34:31;15.45;;;13.82;;
78308;SDS011;67566;42.022;21.356;2023-06-22T07:36:57;20.48;;;13.93;;
78308;SDS011;67566;42.022;21.356;2023-06-22T07:39:22;15.80;;;13.02;;
78308;SDS011;67566;42.022;21.356;2023-06-22T07:41:51;17.00;;;13.18;;
78308;SDS011;67566;42.022;21.356;2023-06-22T07:44:16;17.95;;;13.93;;
78308;SDS011;67566;42.022;21.356;2023-06-22T07:46:42;17.88;;;13.38;;
78308;SDS011;67566;42.022;21.356;2023-06-22T07:49:07;16.67;;;13.10;;
78308;SDS011;67566;42.022;21.356;2023-06-22T07:51:33;14.90;;;12.40;;
78308;SDS011;67566;42.022;21.356;2023-06-22T07:53:59;13.88;;;12.48;;
78308;SDS011;67566;42.022;21.356;2023-06-22T07:56:25;19.13;;;13.40;;
78308;SDS011;67566;42.022;21.356;2023-06-22T07:58:50;14.85;;;13.25;;
78308;SDS011;67566;42.022;21.356;2023-06-22T08:01:18;16.15;;;13.73;;
78308;SDS011;67566;42.022;21.356;2023-06-22T08:03:46;17.05;;;14.88;;
78308;SDS011;67566;42.022;21.356;2023-06-22T08:06:15;13.82;;;12.32;;
78308;SDS011;67566;42.022;21.356;2023-06-22T08:08:41;14.93;;;13.07;;
78308;SDS011;67566;42.022;21.356;2023-06-22T08:11:07;15.90;;;12.90;;
78308;SDS011;67566;42.022;21.356;2023-06-22T08:13:33;15.38;;;13.77;;
78308;SDS011;67566;42.022;21.356;2023-06-22T08:15:59;16.88;;;13.45;;
78308;SDS011;67566;42.022;21.356;2023-06-22T08:18:25;14.98;;;12.32;;
78308;SDS011;67566;42.022;21.356;2023-06-22T08:20:50;14.35;;;12.52;;
78308;SDS011;67566;42.022;21.356;2023-06-22T08:23:16;21.17;;;14.48;;
78308;SDS011;67566;42.022;21.356;2023-06-22T08:25:42;16.48;;;13.27;;
78308;SDS011;67566;42.022;21.356;2023-06-22T08:28:07;15.80;;;13.02;;
78308;SDS011;67566;42.022;21.356;2023-06-22T08:30:33;14.43;;;12.93;;
78308;SDS011;67566;42.022;21.356;2023-06-22T08:33:00;19.23;;;14.43;;
78308;SDS011;67566;42.022;21.356;2023-06-22T08:35:26;16.92;;;13.77;;
78308;SDS011;67566;42.022;21.356;2023-06-22T08:37:51;15.45;;;12.95;;
78308;SDS011;67566;42.022;21.356;2023-06-22T08:40:19;19.65;;;13.82;;
78308;SDS011;67566;42.022;21.356;2023-06-22T08:42:45;16.25;;;13.95;;
78308;SDS011;67566;42.022;21.356;2023-06-22T08:45:12;15.57;;;13.95;;
78308;SDS011;67566;42.022;21.356;2023-06-22T08:47:38;17.92;;;13.38;;
78308;SDS011;67566;42.022;21.356;2023-06-22T08:50:04;16.40;;;13.00;;
78308;SDS011;67566;42.022;21.356;2023-06-22T08:52:31;18.23;;;12.93;;
78308;SDS011;67566;42.022;21.356;2023-06-22T08:54:57;15.60;;;12.93;;
78308;SDS011;67566;42.022;21.356;2023-06-22T08:57:26;14.15;;;12.40;;
78308;SDS011;67566;42.022;21.356;2023-06-22T08:59:52;13.48;;;12.15;;
78308;SDS011;67566;42.022;21.356;2023-06-22T09:02:18;13.88;;;11.88;;
78308;SDS011;67566;42.022;21.356;2023-06-22T09:04:45;17.25;;;12.88;;
78308;SDS011;67566;42.022;21.356;2023-06-22T09:07:11;13.73;;;12.30;;
78308;SDS011;67566;42.022;21.356;2023-06-22T09:09:36;17.10;;;12.23;;
78308;SDS011;67566;42.022;21.356;2023-06-22T09:12:05;14.57;;;12.50;;
78308;SDS011;67566;42.022;21.356;2023-06-22T09:14:40;13.85;;;12.27;;
78308;SDS011;67566;42.022;21.356;2023-06-22T09:17:05;12.98;;;11.68;;
78308;SDS011;67566;42.022;21.356;2023-06-22T09:19:31;17.63;;;12.10;;
78308;SDS011;67566;42.022;21.356;2023-06-22T09:21:56;14.45;;;12.13;;
78308;SDS011;67566;42.022;21.356;2023-06-22T09:24:22;14.13;;;11.02;;
78308;SDS011;67566;42.022;21.356;2023-06-22T09:26:47;14.25;;;11.63;;
78308;SDS011;67566;42.022;21.356;2023-06-22T09:29:13;12.48;;;11.18;;
78308;SDS011;67566;42.022;21.356;2023-06-22T09:31:38;13.75;;;10.65;;
78308;SDS011;67566;42.022;21.356;2023-06-22T09:34:04;13.45;;;12.05;;
78308;SDS011;67566;42.022;21.356;2023-06-22T09:36:30;12.82;;;11.45;;
78308;SDS011;67566;42.022;21.356;2023-06-22T09:38:55;13.63;;;11.27;;
78308;SDS011;67566;42.022;21.356;2023-06-22T09:41:23;14.30;;;10.90;;
78308;SDS011;67566;42.022;21.356;2023-06-22T09:43:49;13.18;;;11.32;;
78308;SDS011;67566;42.022;21.356;2023-06-22T09:46:15;14.13;;;10.20;;
78308;SDS011;67566;42.022;21.356;2023-06-22T09:48:41;14.68;;;10.63;;
78308;SDS011;67566;42.022;21.356;2023-06-22T09:51:07;13.05;;;11.05;;
78308;SDS011;67566;42.022;21.356;2023-06-22T09:53:32;12.40;;;10.40;;
78308;SDS011;67566;42.022;21.356;2023-06-22T09:55:59;10.88;;;9.80;;
78308;SDS011;67566;42.022;21.356;2023-06-22T09:58:25;11.88;;;10.55;;
78308;SDS011;67566;42.022;21.356;2023-06-22T10:00:51;11.98;;;10.80;;
78308;SDS011;67566;42.022;21.356;2023-06-22T10:03:18;12.77;;;10.20;;
78308;SDS011;67566;42.022;21.356;2023-06-22T10:05:43;11.23;;;9.50;;
78308;SDS011;67566;42.022;21.356;2023-06-22T10:08:09;12.90;;;9.77;;
78308;SDS011;67566;42.022;21.356;2023-06-22T10:10:35;13.10;;;10.10;;
78308;SDS011;67566;42.022;21.356;2023-06-22T10:13:08;13.20;;;9.75;;
78308;SDS011;67566;42.022;21.356;2023-06-22T10:15:37;12.00;;;10.07;;
78308;SDS011;67566;42.022;21.356;2023-06-22T10:18:03;15.10;;;9.52;;
78308;SDS011;67566;42.022;21.356;2023-06-22T10:20:29;13.93;;;10.68;;
78308;SDS011;67566;42.022;21.356;2023-06-22T10:22:55;13.75;;;9.25;;
78308;SDS011;67566;42.022;21.356;2023-06-22T10:25:21;11.30;;;9.43;;
78308;SDS011;67566;42.022;21.356;2023-06-22T10:27:47;10.70;;;9.70;;
78308;SDS011;67566;42.022;21.356;2023-06-22T10:30:13;10.30;;;9.27;;
78308;SDS011;67566;42.022;21.356;2023-06-22T10:32:39;9.85;;;8.82;;
78308;SDS011;67566;42.022;21.356;2023-06-22T10:35:05;10.40;;;9.20;;
78308;SDS011;67566;42.022;21.356;2023-06-22T10:37:31;10.50;;;8.98;;
78308;SDS011;67566;42.022;21.356;2023-06-22T10:39:56;10.40;;;8.63;;
78308;SDS011;67566;42.022;21.356;2023-06-22T10:42:22;11.63;;;8.93;;
78308;SDS011;67566;42.022;21.356;2023-06-22T10:44:48;10.75;;;7.88;;
78308;SDS011;67566;42.022;21.356;2023-06-22T10:47:13;9.80;;;8.40;;
78308;SDS011;67566;42.022;21.356;2023-06-22T10:49:39;11.55;;;9.02;;
78308;SDS011;67566;42.022;21.356;2023-06-22T10:52:05;10.20;;;9.18;;
78308;SDS011;67566;42.022;21.356;2023-06-22T10:54:32;12.35;;;9.15;;
78308;SDS011;67566;42.022;21.356;2023-06-22T10:56:59;11.20;;;9.77;;
78308;SDS011;67566;42.022;21.356;2023-06-22T10:59:24;11.30;;;8.88;;
78308;SDS011;67566;42.022;21.356;2023-06-22T11:01:51;11.23;;;9.10;;
78308;SDS011;67566;42.022;21.356;2023-06-22T11:04:16;11.30;;;9.52;;
78308;SDS011;67566;42.022;21.356;2023-06-22T11:06:42;12.35;;;9.65;;
78308;SDS011;67566;42.022;21.356;2023-06-22T11:09:08;10.23;;;8.98;;
78308;SDS011;67566;42.022;21.356;2023-06-22T11:11:34;8.85;;;8.05;;
78308;SDS011;67566;42.022;21.356;2023-06-22T11:13:59;8.45;;;7.35;;
78308;SDS011;67566;42.022;21.356;2023-06-22T11:16:25;10.02;;;8.48;;
78308;SDS011;67566;42.022;21.356;2023-06-22T11:18:50;8.75;;;7.28;;
78308;SDS011;67566;42.022;21.356;2023-06-22T11:21:16;8.48;;;7.68;;
78308;SDS011;67566;42.022;21.356;2023-06-22T11:23:42;9.02;;;8.20;;
78308;SDS011;67566;42.022;21.356;2023-06-22T11:26:07;9.98;;;8.52;;
78308;SDS011;67566;42.022;21.356;2023-06-22T11:28:33;10.65;;;8.98;;
78308;SDS011;67566;42.022;21.356;2023-06-22T11:30:58;9.68;;;8.23;;
78308;SDS011;67566;42.022;21.356;2023-06-22T11:33:24;9.90;;;8.70;;
78308;SDS011;67566;42.022;21.356;2023-06-22T11:35:50;10.95;;;8.13;;
78308;SDS011;67566;42.022;21.356;2023-06-22T11:38:15;9.23;;;7.75;;
78308;SDS011;67566;42.022;21.356;2023-06-22T11:40:40;9.32;;;7.20;;
78308;SDS011;67566;42.022;21.356;2023-06-22T11:43:06;9.70;;;8.05;;
78308;SDS011;67566;42.022;21.356;2023-06-22T11:45:31;7.85;;;7.15;;
78308;SDS011;67566;42.022;21.356;2023-06-22T11:47:57;9.57;;;7.45;;
78308;SDS011;67566;42.022;21.356;2023-06-22T11:50:22;8.48;;;7.57;;
78308;SDS011;67566;42.022;21.356;2023-06-22T11:52:48;7.88;;;7.07;;
78308;SDS011;67566;42.022;21.356;2023-06-22T11:55:16;10.15;;;7.57;;
78308;SDS011;67566;42.022;21.356;2023-06-22T11:57:53;9.32;;;8.15;;
78308;SDS011;67566;42.022;21.356;2023-06-22T12:00:24;7.05;;;6.35;;
78308;SDS011;67566;42.022;21.356;2023-06-22T12:02:50;9.75;;;7.15;;
78308;SDS011;67566;42.022;21.356;2023-06-22T12:05:17;9.40;;;7.03;;
78308;SDS011;67566;42.022;21.356;2023-06-22T12:07:46;7.28;;;6.50;;
78308;SDS011;67566;42.022;21.356;2023-06-22T12:10:11;7.90;;;6.32;;
78308;SDS011;67566;42.022;21.356;2023-06-22T12:12:37;10.98;;;6.93;;
78308;SDS011;67566;42.022;21.356;2023-06-22T12:15:03;8.52;;;6.07;;
78308;SDS011;67566;42.022;21.356;2023-06-22T12:17:29;6.82;;;6.13;;
78308;SDS011;67566;42.022;21.356;2023-06-22T12:19:55;8.00;;;6.70;;
78308;SDS011;67566;42.022;21.356;2023-06-22T12:22:21;7.10;;;6.40;;
78308;SDS011;67566;42.022;21.356;2023-06-22T12:24:46;7.75;;;6.35;;
78308;SDS011;67566;42.022;21.356;2023-06-22T12:27:12;7.88;;;7.07;;
78308;SDS011;67566;42.022;21.356;2023-06-22T12:29:37;6.22;;;4.45;;
78308;SDS011;67566;42.022;21.356;2023-06-22T12:32:03;6.43;;;4.20;;
78308;SDS011;67566;42.022;21.356;2023-06-22T12:34:29;6.15;;;4.40;;
78308;SDS011;67566;42.022;21.356;2023-06-22T12:36:54;9.00;;;5.00;;
78308;SDS011;67566;42.022;21.356;2023-06-22T12:39:20;6.28;;;4.10;;
78308;SDS011;67566;42.022;21.356;2023-06-22T12:41:45;5.15;;;4.32;;
78308;SDS011;67566;42.022;21.356;2023-06-22T12:44:11;7.47;;;4.57;;
78308;SDS011;67566;42.022;21.356;2023-06-22T12:46:36;6.97;;;5.05;;
78308;SDS011;67566;42.022;21.356;2023-06-22T12:49:06;6.95;;;5.20;;
78308;SDS011;67566;42.022;21.356;2023-06-22T12:51:31;8.88;;;5.18;;
78308;SDS011;67566;42.022;21.356;2023-06-22T12:53:57;6.72;;;5.38;;
78308;SDS011;67566;42.022;21.356;2023-06-22T12:56:23;8.27;;;5.38;;
78308;SDS011;67566;42.022;21.356;2023-06-22T12:58:50;6.28;;;4.65;;
78308;SDS011;67566;42.022;21.356;2023-06-22T13:01:16;6.57;;;4.35;;
78308;SDS011;67566;42.022;21.356;2023-06-22T13:03:43;7.47;;;4.43;;
78308;SDS011;67566;42.022;21.356;2023-06-22T13:06:08;8.80;;;4.43;;
78308;SDS011;67566;42.022;21.356;2023-06-22T13:08:34;7.43;;;4.60;;
78308;SDS011;67566;42.022;21.356;2023-06-22T13:10:59;7.00;;;4.53;;
78308;SDS011;67566;42.022;21.356;2023-06-22T13:13:25;5.03;;;4.30;;
78308;SDS011;67566;42.022;21.356;2023-06-22T13:15:52;11.13;;;4.30;;
78308;SDS011;67566;42.022;21.356;2023-06-22T13:18:18;8.48;;;4.28;;
78308;SDS011;67566;42.022;21.356;2023-06-22T13:20:43;6.28;;;4.20;;
78308;SDS011;67566;42.022;21.356;2023-06-22T13:23:10;8.90;;;4.15;;
78308;SDS011;67566;42.022;21.356;2023-06-22T13:25:36;5.28;;;4.05;;
78308;SDS011;67566;42.022;21.356;2023-06-22T13:28:01;5.82;;;4.03;;
78308;SDS011;67566;42.022;21.356;2023-06-22T13:30:27;7.22;;;4.57;;
78308;SDS011;67566;42.022;21.356;2023-06-22T13:32:52;7.47;;;4.13;;
78308;SDS011;67566;42.022;21.356;2023-06-22T13:35:18;8.68;;;4.53;;
78308;SDS011;67566;42.022;21.356;2023-06-22T13:37:43;6.85;;;5.13;;
78308;SDS011;67566;42.022;21.356;2023-06-22T13:40:11;7.50;;;4.63;;
78308;SDS011;67566;42.022;21.356;2023-06-22T13:42:37;8.70;;;4.97;;
78308;SDS011;67566;42.022;21.356;2023-06-22T13:45:03;8.10;;;5.25;;
78308;SDS011;67566;42.022;21.356;2023-06-22T13:47:29;6.38;;;4.68;;
78308;SDS011;67566;42.022;21.356;2023-06-22T13:49:55;7.82;;;5.13;;
78308;SDS011;67566;42.022;21.356;2023-06-22T13:52:22;8.77;;;5.47;;
78308;SDS011;67566;42.022;21.356;2023-06-22T13:54:48;9.00;;;5.03;;
78308;SDS011;67566;42.022;21.356;2023-06-22T13:57:13;7.82;;;4.90;;
78308;SDS011;67566;42.022;21.356;2023-06-22T13:59:39;7.35;;;5.13;;
78308;SDS011;67566;42.022;21.356;2023-06-22T14:02:04;8.68;;;4.93;;
78308;SDS011;67566;42.022;21.356;2023-06-22T14:04:30;8.48;;;4.85;;
78308;SDS011;67566;42.022;21.356;2023-06-22T14:06:56;9.80;;;5.18;;
78308;SDS011;67566;42.022;21.356;2023-06-22T14:09:21;8.73;;;5.22;;
78308;SDS011;67566;42.022;21.356;2023-06-22T14:11:47;7.38;;;5.32;;
78308;SDS011;67566;42.022;21.356;2023-06-22T14:14:12;10.80;;;5.65;;
78308;SDS011;67566;42.022;21.356;2023-06-22T14:16:38;8.95;;;5.80;;
78308;SDS011;67566;42.022;21.356;2023-06-22T14:19:03;10.15;;;5.47;;
78308;SDS011;67566;42.022;21.356;2023-06-22T14:21:29;7.00;;;5.50;;
78308;SDS011;67566;42.022;21.356;2023-06-22T14:23:54;8.55;;;5.57;;
78308;SDS011;67566;42.022;21.356;2023-06-22T14:26:20;6.95;;;5.70;;
78308;SDS011;67566;42.022;21.356;2023-06-22T14:28:46;8.43;;;6.00;;
78308;SDS011;67566;42.022;21.356;2023-06-22T14:31:17;9.02;;;5.88;;
78308;SDS011;67566;42.022;21.356;2023-06-22T14:33:46;9.43;;;6.47;;